Time;durP1;ratioP1;P1;durP2;ratioP2;P2;SDS_P1;SDS_P2;PMS_P1;PMS_P2;Temp;Humidity;BMP_temperature;BMP_pressure;BME280_temperature;BME280_humidity;BME280_pressure;Samples;Min_cycle;Max_cycle;Signal;HPM_P1;HPM_P2
2022/04/20 00:00:51;;;;;;;1.50;1.43;;;10.20;84.60;;;;;;6276039;22;20808;-68
2022/04/20 00:03:18;;;;;;;1.20;1.10;;;10.20;84.90;;;;;;6275042;22;20441;-69
2022/04/20 00:05:45;;;;;;;1.53;1.40;;;10.20;85.00;;;;;;6275366;22;20416;-69
2022/04/20 00:08:12;;;;;;;1.60;1.30;;;10.20;85.10;;;;;;6248159;22;20413;-69
2022/04/20 00:10:40;;;;;;;2.03;1.47;;;10.30;85.30;;;;;;6275170;22;20444;-69
2022/04/20 00:13:07;;;;;;;1.87;1.47;;;10.20;85.50;;;;;;6275247;22;20448;-68
2022/04/20 00:15:35;;;;;;;1.90;1.20;;;10.20;86.00;;;;;;6275431;22;20412;-68
2022/04/20 00:18:02;;;;;;;3.00;1.93;;;10.40;85.70;;;;;;6275199;22;20782;-70
2022/04/20 00:20:29;;;;;;;1.40;1.30;;;10.30;85.80;;;;;;6274993;22;20449;-69
2022/04/20 00:22:56;;;;;;;1.30;1.20;;;10.20;86.40;;;;;;6275203;22;20427;-69
2022/04/20 00:25:24;;;;;;;1.20;1.10;;;10.00;86.70;;;;;;6275372;22;20780;-70
2022/04/20 00:27:52;;;;;;;1.80;1.23;;;9.80;87.80;;;;;;6275486;22;20767;-69
2022/04/20 00:30:19;;;;;;;1.50;1.30;;;9.80;87.90;;;;;;6275458;22;20726;-70
2022/04/20 00:32:46;;;;;;;2.80;1.60;;;9.70;88.40;;;;;;6275350;22;20420;-70
2022/04/20 00:35:13;;;;;;;1.90;1.53;;;9.70;88.50;;;;;;6248374;22;20510;-69
2022/04/20 00:37:41;;;;;;;1.20;1.10;;;9.50;89.40;;;;;;6275438;22;20413;-69
2022/04/20 00:40:09;;;;;;;1.20;1.10;;;9.30;89.90;;;;;;6275443;22;20395;-69
2022/04/20 00:42:40;;;;;;;1.53;1.37;;;9.20;90.40;;;;;;6275355;22;20484;-69
2022/04/20 00:45:10;;;;;;;1.97;1.47;;;9.20;90.50;;;;;;6248451;22;20484;-69
2022/04/20 00:47:42;;;;;;;4.03;1.30;;;9.20;91.00;;;;;;6275106;22;20416;-71
2022/04/20 00:50:10;;;;;;;1.83;1.20;;;9.00;91.00;;;;;;6275690;22;20437;-69
2022/04/20 00:52:38;;;;;;;1.57;1.27;;;8.90;90.90;;;;;;6275658;22;20707;-70
2022/04/20 00:55:07;;;;;;;1.30;1.20;;;9.00;91.40;;;;;;6275270;22;20409;-68
2022/04/20 00:57:34;;;;;;;3.70;1.60;;;9.10;91.40;;;;;;6274847;22;20423;-69
2022/04/20 01:00:02;;;;;;;3.07;1.60;;;9.20;91.30;;;;;;6275000;22;20437;-70
2022/04/20 01:02:31;;;;;;;1.40;1.37;;;9.30;91.10;;;;;;6274435;22;20444;-70
2022/04/20 01:04:58;;;;;;;2.03;1.20;;;9.30;91.20;;;;;;6274845;22;20898;-69
2022/04/20 01:07:25;;;;;;;1.40;1.30;;;9.20;91.10;;;;;;6275046;22;20416;-70
2022/04/20 01:09:54;;;;;;;1.60;1.20;;;9.00;91.60;;;;;;6248233;22;20416;-69
2022/04/20 01:12:21;;;;;;;1.40;1.30;;;8.80;92.50;;;;;;6274974;22;20458;-70
2022/04/20 01:14:50;;;;;;;1.67;1.50;;;8.50;94.30;;;;;;6275149;22;20497;-70
2022/04/20 01:17:17;;;;;;;1.53;1.50;;;8.40;94.50;;;;;;6274599;22;20497;-70
2022/04/20 01:19:46;;;;;;;1.77;1.57;;;8.30;95.30;;;;;;6275056;22;20428;-69
2022/04/20 01:22:14;;;;;;;1.43;1.40;;;8.10;95.10;;;;;;6275192;22;20462;-69
2022/04/20 01:24:41;;;;;;;1.30;1.10;;;8.10;95.50;;;;;;6274641;22;20457;-69
2022/04/20 01:27:08;;;;;;;1.20;1.20;;;8.20;95.70;;;;;;6275012;22;20411;-69
2022/04/20 01:29:36;;;;;;;1.47;1.43;;;8.10;95.70;;;;;;6275904;22;20415;-68
2022/04/20 01:32:03;;;;;;;1.50;1.20;;;8.00;96.70;;;;;;6276622;22;20462;-70
2022/04/20 01:34:30;;;;;;;1.40;1.00;;;8.00;95.70;;;;;;6276690;22;20393;-69
2022/04/20 01:36:57;;;;;;;1.93;1.40;;;8.00;95.70;;;;;;6276809;22;20886;-69
2022/04/20 01:39:26;;;;;;;1.20;1.00;;;8.00;95.80;;;;;;6276304;22;20715;-70
2022/04/20 01:41:53;;;;;;;2.03;1.23;;;8.10;95.90;;;;;;6276982;22;20409;-69
2022/04/20 01:44:20;;;;;;;1.40;1.37;;;8.00;96.30;;;;;;6276446;22;21007;-69
2022/04/20 01:46:47;;;;;;;1.67;1.50;;;7.90;96.70;;;;;;6249830;22;20416;-69
2022/04/20 01:49:13;;;;;;;1.20;1.10;;;7.80;96.80;;;;;;6276632;22;20727;-68
2022/04/20 01:51:51;;;;;;;1.90;1.43;;;7.80;97.10;;;;;;6276667;22;20413;-69
2022/04/20 01:54:19;;;;;;;1.90;1.50;;;7.70;97.50;;;;;;6276306;22;20950;-69
2022/04/20 01:56:48;;;;;;;1.83;1.23;;;7.60;97.50;;;;;;6250115;22;20693;-69
2022/04/20 01:59:16;;;;;;;1.30;1.20;;;7.60;97.60;;;;;;6276336;22;20400;-69
2022/04/20 02:04:28;;;;;;;3.60;1.73;;;7.40;98.00;;;;;;6286570;22;20427;-70
2022/04/20 02:06:56;;;;;;;1.60;1.30;;;7.10;98.00;;;;;;6276595;22;20479;-69
2022/04/20 02:09:24;;;;;;;2.07;1.67;;;6.90;98.00;;;;;;6276465;22;20494;-70
2022/04/20 02:11:52;;;;;;;1.30;1.20;;;6.80;98.00;;;;;;6275985;22;20424;-69
2022/04/20 02:14:19;;;;;;;1.47;1.20;;;6.70;98.00;;;;;;6276160;22;20920;-69
2022/04/20 02:16:46;;;;;;;1.30;1.30;;;6.70;98.00;;;;;;6276014;22;20948;-70
2022/04/20 02:19:13;;;;;;;1.47;1.37;;;6.70;98.00;;;;;;6276639;22;20426;-68
2022/04/20 02:21:40;;;;;;;1.57;1.47;;;6.60;98.00;;;;;;6276666;22;20414;-70
2022/04/20 02:24:07;;;;;;;1.57;1.43;;;6.50;98.00;;;;;;6275825;22;20470;-69
2022/04/20 02:26:34;;;;;;;2.57;1.50;;;6.50;98.00;;;;;;6276292;22;20410;-69
2022/04/20 02:29:02;;;;;;;1.70;1.63;;;6.50;98.00;;;;;;6276498;22;21158;-70
2022/04/20 02:31:29;;;;;;;1.30;1.00;;;6.50;98.00;;;;;;6276448;22;20742;-69
2022/04/20 02:33:56;;;;;;;1.50;1.27;;;6.50;98.00;;;;;;6276512;22;20422;-69
2022/04/20 02:36:23;;;;;;;2.13;1.40;;;6.40;98.00;;;;;;6276411;22;20422;-69
2022/04/20 02:38:51;;;;;;;1.57;1.40;;;6.30;98.00;;;;;;6275919;22;20799;-70
2022/04/20 02:41:19;;;;;;;1.70;1.50;;;6.30;98.00;;;;;;6276079;22;20766;-69
2022/04/20 02:43:46;;;;;;;1.30;1.10;;;6.20;98.00;;;;;;6275719;22;20448;-69
2022/04/20 02:46:14;;;;;;;1.40;1.10;;;6.20;98.00;;;;;;6275995;22;20413;-69
2022/04/20 02:48:42;;;;;;;1.20;1.10;;;6.20;98.00;;;;;;6275634;22;20416;-69
2022/04/20 02:51:09;;;;;;;1.50;1.40;;;6.10;98.00;;;;;;6276092;22;20429;-69
2022/04/20 02:53:36;;;;;;;1.20;1.00;;;5.90;98.00;;;;;;6248736;22;20394;-69
2022/04/20 02:56:03;;;;;;;1.93;1.53;;;5.90;98.00;;;;;;6275779;22;20471;-70
2022/04/20 02:58:31;;;;;;;2.30;1.47;;;6.10;98.00;;;;;;6276025;22;20398;-69
2022/04/20 03:00:58;;;;;;;1.40;1.10;;;6.10;98.00;;;;;;6275730;22;20410;-69
2022/04/20 03:03:26;;;;;;;4.30;1.57;;;6.00;98.00;;;;;;6275201;22;20969;-69
2022/04/20 03:05:53;;;;;;;1.40;1.20;;;6.00;98.00;;;;;;6274269;22;20416;-69
2022/04/20 03:08:25;;;;;;;1.30;1.17;;;5.90;98.00;;;;;;6274626;22;20449;-70
2022/04/20 03:10:52;;;;;;;1.20;1.10;;;5.90;98.00;;;;;;6275793;22;20488;-70
2022/04/20 03:13:19;;;;;;;1.20;1.00;;;5.80;98.00;;;;;;6275836;22;20420;-70
2022/04/20 03:15:46;;;;;;;1.30;1.10;;;5.70;98.00;;;;;;6276088;22;20412;-69
2022/04/20 03:18:14;;;;;;;1.20;1.20;;;5.70;98.00;;;;;;6275593;22;20414;-70
2022/04/20 03:20:42;;;;;;;1.60;1.40;;;5.80;98.00;;;;;;6275897;22;20470;-68
2022/04/20 03:23:10;;;;;;;2.13;1.70;;;6.00;98.00;;;;;;6275720;22;20463;-69
2022/04/20 03:25:36;;;;;;;1.63;1.30;;;6.00;98.00;;;;;;6276027;22;20885;-68
2022/04/20 03:28:04;;;;;;;2.37;1.17;;;5.80;98.00;;;;;;6275827;22;20466;-69
2022/04/20 03:30:32;;;;;;;1.33;1.20;;;5.60;98.00;;;;;;6275610;22;20399;-68
2022/04/20 03:32:59;;;;;;;1.30;1.10;;;5.60;98.00;;;;;;6275600;22;20404;-69
2022/04/20 03:35:26;;;;;;;1.37;1.33;;;5.50;98.00;;;;;;6275349;22;20398;-69
2022/04/20 03:37:55;;;;;;;1.20;0.90;;;5.50;98.00;;;;;;6275556;22;20472;-69
2022/04/20 03:40:22;;;;;;;1.30;1.17;;;5.30;98.00;;;;;;6275338;22;20886;-69
2022/04/20 03:42:49;;;;;;;1.20;1.00;;;5.40;98.00;;;;;;6275346;22;20466;-70
2022/04/20 03:45:16;;;;;;;1.97;1.30;;;5.40;98.00;;;;;;6223011;22;20968;-69
2022/04/20 03:47:43;;;;;;;1.20;1.10;;;5.30;98.00;;;;;;6275570;22;20478;-69
2022/04/20 03:50:10;;;;;;;1.20;1.00;;;5.50;98.00;;;;;;6275276;22;20414;-70
2022/04/20 03:52:38;;;;;;;1.30;1.00;;;5.40;98.00;;;;;;6275095;22;20404;-70
2022/04/20 03:55:08;;;;;;;1.20;1.00;;;5.20;98.00;;;;;;6275272;22;20504;-69
2022/04/20 03:57:36;;;;;;;1.30;1.20;;;5.20;98.00;;;;;;6275550;22;20871;-70
2022/04/20 04:00:04;;;;;;;2.20;1.27;;;5.20;98.00;;;;;;6275516;22;20410;-69
2022/04/20 04:02:31;;;;;;;1.40;1.37;;;5.00;98.00;;;;;;6275538;22;20416;-68
2022/04/20 04:04:58;;;;;;;1.40;1.30;;;4.90;98.00;;;;;;6275277;22;20426;-69
2022/04/20 04:07:25;;;;;;;1.43;1.37;;;4.70;98.00;;;;;;6275359;22;20400;-69
2022/04/20 04:09:52;;;;;;;2.17;1.33;;;4.60;98.00;;;;;;6275589;22;20708;-70
2022/04/20 04:12:24;;;;;;;1.20;1.00;;;4.60;98.00;;;;;;6275439;22;20414;-68
2022/04/20 04:14:53;;;;;;;1.87;1.53;;;4.70;98.00;;;;;;6275576;22;20777;-69
2022/04/20 04:17:20;;;;;;;1.47;1.40;;;4.90;98.00;;;;;;6248258;22;20420;-70
2022/04/20 04:19:47;;;;;;;1.20;1.10;;;5.00;98.00;;;;;;6248738;22;21099;-69
2022/04/20 04:22:14;;;;;;;1.20;1.00;;;5.20;98.00;;;;;;6275464;22;20447;-70
2022/04/20 04:24:41;;;;;;;1.50;1.20;;;5.10;98.00;;;;;;6275186;22;20818;-70
2022/04/20 04:27:10;;;;;;;3.40;1.70;;;5.00;98.00;;;;;;6275013;22;20885;-69
2022/04/20 04:29:39;;;;;;;1.20;1.00;;;4.80;98.00;;;;;;6275023;22;20443;-69
2022/04/20 04:32:09;;;;;;;1.20;0.93;;;4.90;98.00;;;;;;6275150;22;20444;-71
2022/04/20 04:34:36;;;;;;;1.20;1.00;;;4.80;98.00;;;;;;6274679;22;20473;-69
2022/04/20 04:37:04;;;;;;;2.13;1.37;;;4.80;98.00;;;;;;6275157;22;20452;-71
2022/04/20 04:39:31;;;;;;;1.20;1.00;;;4.70;98.00;;;;;;6275305;22;20412;-69
2022/04/20 04:42:00;;;;;;;1.50;1.10;;;4.70;98.00;;;;;;6275221;22;20430;-69
2022/04/20 04:44:28;;;;;;;1.70;1.20;;;4.80;98.00;;;;;;6274627;22;20448;-69
2022/04/20 04:49:41;;;;;;;1.20;1.10;;;5.20;98.00;;;;;;6275303;22;20486;-69
2022/04/20 04:52:11;;;;;;;1.20;1.17;;;5.30;98.00;;;;;;6274960;22;20418;-69
2022/04/20 04:54:40;;;;;;;1.27;1.07;;;5.00;98.00;;;;;;6274955;22;20456;-70
2022/04/20 04:57:08;;;;;;;1.20;1.03;;;5.00;98.00;;;;;;6248305;22;20437;-68
2022/04/20 04:59:36;;;;;;;1.50;1.10;;;5.00;98.00;;;;;;6275281;22;20419;-69
2022/04/20 05:02:06;;;;;;;1.67;1.30;;;4.90;98.00;;;;;;6248622;22;20404;-70
2022/04/20 05:04:32;;;;;;;1.30;1.20;;;4.90;98.00;;;;;;6276329;22;20427;-69
2022/04/20 05:07:00;;;;;;;1.20;1.10;;;4.80;98.00;;;;;;6277138;22;20447;-69
2022/04/20 05:09:32;;;;;;;1.83;1.30;;;4.80;98.00;;;;;;6277035;22;20457;-69
2022/04/20 05:12:01;;;;;;;1.83;1.57;;;4.80;98.00;;;;;;6250756;22;20399;-69
2022/04/20 05:14:28;;;;;;;1.57;1.37;;;5.00;98.00;;;;;;6277152;22;20483;-69
2022/04/20 05:16:55;;;;;;;1.20;1.03;;;5.00;98.00;;;;;;6276555;22;20415;-69
2022/04/20 05:19:24;;;;;;;1.67;1.13;;;5.10;98.00;;;;;;6276588;22;20422;-69
2022/04/20 05:21:51;;;;;;;1.77;1.67;;;5.10;98.00;;;;;;6276402;22;20409;-69
2022/04/20 05:24:17;;;;;;;1.47;1.33;;;5.30;98.00;;;;;;6276868;22;20437;-69
2022/04/20 05:26:45;;;;;;;2.17;1.57;;;5.30;98.00;;;;;;6276990;22;20423;-70
2022/04/20 05:29:12;;;;;;;1.90;1.40;;;5.30;98.00;;;;;;6249883;22;20416;-69
2022/04/20 05:31:40;;;;;;;1.30;1.20;;;5.30;98.00;;;;;;6276280;22;20416;-68
2022/04/20 05:34:06;;;;;;;2.23;1.53;;;5.20;98.00;;;;;;6276791;22;20442;-68
2022/04/20 05:42:17;;;;;;;2.20;1.83;;;5.30;98.00;;;;;;6276667;22;20530;-69
2022/04/20 05:44:44;;;;;;;1.20;1.00;;;5.30;98.00;;;;;;6276248;22;20442;-69
2022/04/20 05:47:10;;;;;;;2.07;1.70;;;5.60;98.00;;;;;;6276575;22;20414;-69
2022/04/20 05:49:37;;;;;;;1.50;1.10;;;5.70;98.00;;;;;;6276991;22;20492;-68
2022/04/20 05:52:07;;;;;;;1.20;0.90;;;5.90;98.00;;;;;;6276631;22;20403;-68
2022/04/20 05:54:34;;;;;;;2.53;1.30;;;6.10;98.00;;;;;;6276897;22;20410;-68
2022/04/20 05:57:02;;;;;;;1.40;1.33;;;6.30;98.00;;;;;;6276801;22;20917;-68
2022/04/20 05:59:29;;;;;;;1.80;1.73;;;6.40;98.00;;;;;;6276989;22;20413;-69
2022/04/20 06:01:56;;;;;;;1.47;1.47;;;6.50;98.00;;;;;;6274371;22;20486;-68
2022/04/20 06:04:28;;;;;;;1.40;1.33;;;6.60;98.00;;;;;;6276554;22;20447;-68
2022/04/20 06:06:55;;;;;;;1.40;1.37;;;6.60;98.00;;;;;;6276849;22;20407;-68
2022/04/20 06:09:24;;;;;;;1.63;1.50;;;6.70;98.00;;;;;;6276613;22;20397;-68
2022/04/20 06:11:52;;;;;;;1.20;1.00;;;6.90;98.00;;;;;;6276283;22;20447;-68
2022/04/20 06:14:20;;;;;;;2.33;1.73;;;6.90;98.00;;;;;;6276110;22;20506;-68
2022/04/20 06:16:47;;;;;;;6.70;2.00;;;7.10;98.00;;;;;;6276510;22;20403;-68
2022/04/20 06:19:14;;;;;;;1.93;1.63;;;7.10;98.00;;;;;;6275624;22;20425;-68
2022/04/20 06:21:40;;;;;;;2.40;1.20;;;7.20;98.00;;;;;;6276117;22;20442;-67
2022/04/20 06:24:07;;;;;;;1.20;1.00;;;7.20;98.00;;;;;;6276081;22;20929;-68
2022/04/20 06:26:36;;;;;;;1.40;1.10;;;7.30;98.00;;;;;;6249620;22;20414;-67
2022/04/20 06:29:03;;;;;;;1.73;1.57;;;7.40;98.00;;;;;;6249228;22;20704;-68
2022/04/20 06:31:35;;;;;;;1.50;1.40;;;7.40;98.00;;;;;;6276108;22;20414;-68
2022/04/20 06:34:02;;;;;;;1.20;1.03;;;7.50;98.00;;;;;;6276344;22;20406;-69
2022/04/20 06:36:29;;;;;;;1.37;1.20;;;7.50;98.00;;;;;;6275999;22;20905;-68
2022/04/20 06:38:56;;;;;;;1.20;1.10;;;7.70;97.90;;;;;;6275839;22;20425;-68
2022/04/20 06:41:24;;;;;;;1.37;1.10;;;7.80;97.80;;;;;;6249438;22;20746;-68
2022/04/20 06:43:52;;;;;;;1.80;1.33;;;7.90;98.00;;;;;;6275726;22;20427;-67
2022/04/20 06:46:19;;;;;;;1.67;1.30;;;8.00;98.00;;;;;;6275647;22;20441;-68
2022/04/20 06:48:46;;;;;;;1.20;1.00;;;8.10;97.10;;;;;;6276375;22;20401;-68
2022/04/20 06:51:13;;;;;;;1.40;1.20;;;8.20;96.90;;;;;;6249184;22;20457;-68
2022/04/20 06:59:10;;;;;;;1.30;1.20;;;8.40;95.30;;;;;;6275506;22;20410;-67
2022/04/20 07:01:37;;;;;;;1.53;1.40;;;8.40;95.40;;;;;;6275967;22;20413;-68
2022/04/20 07:04:05;;;;;;;1.30;1.30;;;8.50;95.40;;;;;;6275710;22;20415;-67
2022/04/20 07:06:33;;;;;;;1.80;1.30;;;8.60;95.60;;;;;;6275810;22;20486;-68
2022/04/20 07:09:00;;;;;;;1.57;1.20;;;8.80;95.60;;;;;;6248905;22;20458;-68
2022/04/20 07:11:28;;;;;;;1.23;1.00;;;8.90;95.00;;;;;;6275033;22;20439;-68
2022/04/20 07:13:55;;;;;;;1.20;1.00;;;8.90;94.70;;;;;;6275525;22;20893;-68
2022/04/20 07:16:24;;;;;;;1.20;1.10;;;9.10;94.40;;;;;;6248839;22;20426;-68
2022/04/20 07:18:51;;;;;;;1.60;1.37;;;9.10;93.70;;;;;;6275667;22;20411;-68
2022/04/20 07:21:18;;;;;;;1.50;1.30;;;9.30;94.60;;;;;;6247127;22;20424;-68
2022/04/20 07:23:45;;;;;;;1.40;1.40;;;9.50;94.10;;;;;;6274719;22;20400;-69
2022/04/20 07:26:13;;;;;;;2.37;1.63;;;9.60;93.10;;;;;;6274165;22;20436;-70
2022/04/20 07:28:43;;;;;;;1.77;1.40;;;9.70;92.40;;;;;;6274064;22;20404;-67
2022/04/20 07:31:10;;;;;;;2.17;1.80;;;9.80;92.30;;;;;;6247734;22;20918;-67
2022/04/20 07:33:38;;;;;;;1.40;1.30;;;9.90;91.80;;;;;;6274272;22;20415;-68
2022/04/20 07:36:05;;;;;;;4.57;2.03;;;10.00;91.60;;;;;;6274594;22;20448;-67
2022/04/20 07:38:32;;;;;;;2.17;1.40;;;10.10;90.00;;;;;;6274231;22;20895;-68
2022/04/20 07:41:00;;;;;;;2.13;1.40;;;10.10;90.60;;;;;;6274323;22;20447;-70
2022/04/20 07:43:27;;;;;;;2.60;1.50;;;10.20;90.40;;;;;;6274303;22;20798;-68
2022/04/20 07:45:54;;;;;;;1.30;1.00;;;10.30;89.70;;;;;;6274154;22;20479;-68
2022/04/20 07:48:21;;;;;;;1.50;1.17;;;10.30;89.60;;;;;;6247778;22;20772;-68
2022/04/20 07:50:49;;;;;;;3.50;2.13;;;10.40;89.00;;;;;;6274588;22;20778;-70
2022/04/20 07:53:17;;;;;;;2.70;1.73;;;10.50;89.90;;;;;;6248014;22;20415;-69
2022/04/20 07:55:46;;;;;;;1.77;1.40;;;10.70;88.90;;;;;;6275496;22;20397;-69
2022/04/20 07:58:15;;;;;;;2.53;1.20;;;10.70;85.10;;;;;;6274864;22;20931;-68
2022/04/20 08:00:42;;;;;;;1.30;1.10;;;10.70;86.60;;;;;;6274815;22;20425;-69
2022/04/20 08:03:13;;;;;;;1.30;1.10;;;10.80;86.90;;;;;;6274927;22;21219;-68
2022/04/20 08:05:40;;;;;;;1.20;1.07;;;10.90;86.90;;;;;;6275405;22;20426;-68
2022/04/20 08:08:10;;;;;;;1.30;1.00;;;11.00;85.40;;;;;;6275256;22;20441;-68
2022/04/20 08:10:37;;;;;;;1.30;0.97;;;11.20;85.30;;;;;;6275565;22;20417;-68
2022/04/20 08:14:09;;;;;;;1.93;1.40;;;11.20;84.50;;;;;;6248338;22;20402;-68
2022/04/20 08:16:04;;;;;;;1.20;1.10;;;11.20;84.00;;;;;;6274983;22;20407;-68
2022/04/20 08:18:31;;;;;;;1.30;1.20;;;11.30;83.60;;;;;;6275494;22;20715;-68
2022/04/20 08:20:58;;;;;;;1.40;1.40;;;11.40;82.90;;;;;;6275187;22;20397;-68
2022/04/20 08:23:29;;;;;;;1.70;1.40;;;11.50;83.50;;;;;;6275249;22;20412;-68
2022/04/20 08:25:56;;;;;;;1.80;1.40;;;11.60;81.70;;;;;;6274708;22;20425;-68
2022/04/20 08:28:24;;;;;;;1.50;1.33;;;11.70;81.80;;;;;;6274489;22;20400;-68
2022/04/20 08:30:51;;;;;;;1.80;1.40;;;11.70;82.10;;;;;;6274560;22;20401;-68
2022/04/20 08:33:18;;;;;;;1.30;1.10;;;11.90;81.60;;;;;;6274588;22;20420;-68
2022/04/20 08:35:45;;;;;;;2.70;1.47;;;12.00;83.50;;;;;;6275531;22;20984;-68
2022/04/20 08:38:12;;;;;;;1.33;1.17;;;12.20;83.00;;;;;;6249532;22;20420;-69
2022/04/20 08:40:42;;;;;;;1.50;1.13;;;12.30;81.20;;;;;;6277746;22;20462;-68
2022/04/20 08:43:12;;;;;;;1.40;1.20;;;12.30;81.00;;;;;;6277219;22;20814;-69
2022/04/20 08:45:41;;;;;;;1.30;1.17;;;12.40;81.20;;;;;;6277309;22;20531;-68
2022/04/20 08:48:08;;;;;;;3.53;1.90;;;12.60;82.10;;;;;;6277274;22;20421;-68
2022/04/20 08:50:37;;;;;;;4.20;1.50;;;12.70;80.90;;;;;;6276080;22;20413;-68
2022/04/20 08:53:04;;;;;;;1.73;1.40;;;12.90;81.70;;;;;;6276581;22;20450;-68
2022/04/20 08:55:31;;;;;;;1.57;1.30;;;12.90;79.50;;;;;;6276581;22;20889;-68
2022/04/20 08:58:02;;;;;;;1.40;1.30;;;13.00;80.20;;;;;;6277007;22;20398;-69
2022/04/20 09:00:30;;;;;;;1.63;1.43;;;13.10;80.20;;;;;;6277195;22;20398;-69
2022/04/20 09:02:58;;;;;;;2.00;1.43;;;13.20;78.90;;;;;;6250567;22;20408;-68
2022/04/20 09:05:28;;;;;;;1.87;1.70;;;13.20;79.40;;;;;;6276918;22;20434;-68
2022/04/20 09:07:56;;;;;;;1.67;1.20;;;13.30;79.30;;;;;;6277182;22;20716;-68
2022/04/20 09:10:23;;;;;;;1.20;1.07;;;13.40;78.60;;;;;;6249618;22;20914;-68
2022/04/20 09:13:07;;;;;;;1.87;1.23;;;13.60;79.50;;;;;;6276804;22;20402;-68
2022/04/20 09:15:36;;;;;;;1.77;1.40;;;13.60;76.00;;;;;;6277087;22;20472;-69
2022/04/20 09:18:04;;;;;;;1.73;1.20;;;13.70;77.10;;;;;;6276927;22;20398;-69
2022/04/20 09:20:33;;;;;;;2.17;1.60;;;14.00;77.10;;;;;;6287076;22;20426;-69
2022/04/20 09:23:04;;;;;;;1.50;1.43;;;14.00;75.30;;;;;;6277253;22;20401;-69
2022/04/20 09:25:33;;;;;;;2.73;1.43;;;14.00;75.10;;;;;;6277124;22;20465;-69
2022/04/20 09:28:00;;;;;;;2.53;1.57;;;14.20;75.30;;;;;;6276543;22;20457;-68
2022/04/20 09:30:33;;;;;;;2.47;1.37;;;14.30;75.00;;;;;;6249409;22;20415;-67
2022/04/20 09:33:07;;;;;;;1.43;1.00;;;14.40;74.90;;;;;;6276665;22;20403;-67
2022/04/20 09:35:41;;;;;;;2.30;1.20;;;14.60;76.40;;;;;;6276903;22;20401;-68
2022/04/20 09:38:11;;;;;;;1.30;1.30;;;14.70;73.40;;;;;;6276066;22;20402;-68
2022/04/20 09:40:40;;;;;;;2.23;1.50;;;14.80;73.10;;;;;;6224979;22;20425;-68
2022/04/20 09:43:08;;;;;;;1.50;1.30;;;14.80;71.10;;;;;;6276285;22;20430;-68
2022/04/20 09:45:37;;;;;;;1.20;1.10;;;14.80;73.20;;;;;;6276771;22;20800;-69
2022/04/20 09:51:10;;;;;;;1.40;1.30;;;14.90;73.20;;;;;;6276160;22;20392;-69
2022/04/20 09:53:38;;;;;;;1.53;1.30;;;14.90;71.70;;;;;;6277359;22;20399;-68
2022/04/20 09:56:18;;;;;;;1.50;1.33;;;15.00;71.50;;;;;;6276887;22;20446;-69
2022/04/20 09:58:46;;;;;;;1.30;1.20;;;15.20;73.30;;;;;;6276554;22;20769;-68
2022/04/20 10:01:29;;;;;;;1.87;1.40;;;15.30;71.70;;;;;;6276647;22;20767;-68
2022/04/20 10:03:56;;;;;;;1.40;1.10;;;15.40;69.60;;;;;;6276391;22;20862;-69
2022/04/20 10:06:24;;;;;;;1.70;1.33;;;15.50;71.00;;;;;;6276815;22;20460;-69
2022/04/20 10:08:51;;;;;;;1.83;1.30;;;15.60;71.50;;;;;;6276474;22;20482;-69
2022/04/20 10:11:21;;;;;;;1.80;1.50;;;15.70;70.70;;;;;;6276470;22;20426;-69
2022/04/20 10:16:05;;;;;;;1.67;1.50;;;15.80;70.30;;;;;;6276369;22;20416;-69
2022/04/20 10:16:38;;;;;;;1.73;1.50;;;16.00;70.80;;;;;;6276177;22;20541;-69
2022/04/20 10:19:07;;;;;;;1.80;1.50;;;16.10;69.80;;;;;;6276570;22;20403;-69
2022/04/20 10:21:38;;;;;;;1.60;1.40;;;16.00;70.30;;;;;;6276745;22;20412;-69
2022/04/20 10:24:06;;;;;;;1.57;1.40;;;16.00;69.70;;;;;;6276948;22;20395;-69
2022/04/20 10:26:35;;;;;;;1.40;1.30;;;16.00;70.10;;;;;;6276342;22;20444;-69
2022/04/20 10:29:09;;;;;;;2.37;1.30;;;16.00;70.30;;;;;;6276060;22;20450;-69
2022/04/20 10:31:43;;;;;;;1.40;1.27;;;16.20;69.40;;;;;;6276086;22;20879;-69
2022/04/20 10:34:15;;;;;;;1.67;1.63;;;16.30;69.90;;;;;;6275632;22;20517;-70
2022/04/20 10:36:56;;;;;;;2.10;1.50;;;16.40;69.80;;;;;;6275968;22;20401;-69
2022/04/20 10:39:26;;;;;;;1.60;1.50;;;16.50;69.50;;;;;;6275775;22;20450;-69
2022/04/20 10:42:17;;;;;;;1.47;1.30;;;16.60;69.00;;;;;;6276254;22;20407;-69
2022/04/20 10:44:53;;;;;;;2.20;1.40;;;16.80;69.10;;;;;;6275759;22;20428;-69
2022/04/20 10:47:25;;;;;;;1.50;1.37;;;16.90;69.40;;;;;;6275733;22;20443;-69
2022/04/20 10:49:54;;;;;;;2.30;1.70;;;17.00;69.00;;;;;;6275368;22;20428;-69
2022/04/20 10:52:28;;;;;;;2.10;1.50;;;17.20;68.50;;;;;;6276351;22;20415;-69
2022/04/20 10:54:56;;;;;;;1.63;1.33;;;17.30;68.00;;;;;;6276210;22;20424;-69
2022/04/20 10:57:34;;;;;;;1.47;1.43;;;17.50;66.80;;;;;;6275783;22;20413;-69
2022/04/20 11:00:27;;;;;;;1.50;1.40;;;17.60;68.00;;;;;;6276273;22;20403;-69
2022/04/20 11:02:56;;;;;;;1.60;1.47;;;17.60;67.20;;;;;;6276109;22;20765;-68
2022/04/20 11:05:24;;;;;;;1.70;1.40;;;17.60;66.20;;;;;;6275512;22;20474;-69
2022/04/20 11:08:14;;;;;;;2.33;1.37;;;17.60;68.10;;;;;;6276211;22;20420;-69
2022/04/20 11:10:42;;;;;;;1.87;1.50;;;17.80;66.60;;;;;;6275756;22;20404;-69
2022/04/20 11:19:10;;;;;;;2.43;1.87;;;18.40;64.30;;;;;;6202376;22;20405;-69
2022/04/20 11:21:38;;;;;;;3.10;1.97;;;18.40;64.40;;;;;;6275852;22;20723;-69
2022/04/20 11:24:11;;;;;;;2.33;1.63;;;18.40;63.80;;;;;;6275880;22;20447;-68
2022/04/20 11:26:40;;;;;;;1.57;1.40;;;18.60;64.90;;;;;;6275585;22;20475;-69
2022/04/20 11:29:14;;;;;;;1.80;1.73;;;18.80;64.80;;;;;;6275804;22;20397;-69
2022/04/20 11:31:43;;;;;;;2.40;1.60;;;19.00;65.60;;;;;;6274557;22;20412;-69
2022/04/20 11:34:14;;;;;;;2.37;1.67;;;19.10;63.40;;;;;;6275408;22;20501;-69
2022/04/20 11:36:43;;;;;;;2.00;1.63;;;19.30;62.70;;;;;;6275762;22;20397;-69
2022/04/20 11:39:11;;;;;;;1.30;1.30;;;19.40;61.80;;;;;;6275623;22;20412;-69
2022/04/20 11:41:38;;;;;;;3.40;1.83;;;19.50;61.70;;;;;;6275516;22;20431;-69
2022/04/20 11:44:20;;;;;;;2.00;1.77;;;19.80;65.00;;;;;;6275146;22;20424;-69
2022/04/20 11:46:47;;;;;;;2.23;1.50;;;19.90;62.20;;;;;;6275529;22;20425;-69
2022/04/20 11:49:16;;;;;;;1.60;1.60;;;20.10;62.70;;;;;;6275564;22;20922;-70
2022/04/20 11:51:45;;;;;;;1.50;1.40;;;20.40;63.20;;;;;;6275552;22;20466;-69
2022/04/20 11:54:18;;;;;;;3.00;2.23;;;20.30;60.30;;;;;;6275315;22;20413;-69
2022/04/20 11:56:45;;;;;;;1.77;1.50;;;20.30;60.10;;;;;;6275824;22;20521;-69
2022/04/20 11:59:12;;;;;;;1.80;1.27;;;20.40;61.00;;;;;;6248329;22;20423;-69
2022/04/20 12:01:41;;;;;;;1.27;1.20;;;20.60;61.90;;;;;;6275336;22;20451;-69
2022/04/20 12:04:16;;;;;;;3.70;1.83;;;20.70;60.90;;;;;;6275308;22;20419;-69
2022/04/20 12:06:53;;;;;;;1.83;1.50;;;20.80;59.60;;;;;;6275808;22;20359;-67
2022/04/20 12:09:24;;;;;;;1.53;1.50;;;20.80;61.70;;;;;;6248016;22;20177;-67
2022/04/20 12:11:55;;;;;;;2.23;1.60;;;20.70;59.10;;;;;;6275376;22;20408;-67
2022/04/20 12:14:24;;;;;;;2.13;1.53;;;21.00;58.80;;;;;;6274789;22;20436;-67
2022/04/20 12:16:52;;;;;;;1.50;1.40;;;21.10;60.80;;;;;;6275458;22;20790;-68
2022/04/20 12:19:21;;;;;;;2.70;1.73;;;21.60;58.30;;;;;;6275224;22;20478;-67
2022/04/20 12:21:49;;;;;;;2.20;1.77;;;21.50;58.10;;;;;;6275356;22;20393;-68
2022/04/20 12:24:22;;;;;;;2.17;1.50;;;21.50;57.50;;;;;;6274271;22;20438;-70
2022/04/20 12:26:50;;;;;;;1.70;1.60;;;21.30;58.80;;;;;;6274943;22;20460;-69
2022/04/20 12:29:20;;;;;;;2.03;1.40;;;21.10;57.30;;;;;;6275272;22;20522;-69
2022/04/20 12:31:49;;;;;;;1.97;1.50;;;21.10;60.00;;;;;;6274979;22;20393;-66
2022/04/20 12:34:17;;;;;;;1.70;1.20;;;21.00;55.30;;;;;;6274891;22;20834;-66
2022/04/20 12:36:54;;;;;;;1.80;1.40;;;20.90;58.40;;;;;;6274874;22;20412;-66
2022/04/20 12:39:29;;;;;;;2.00;1.60;;;21.20;56.60;;;;;;6275204;22;20476;-69
2022/04/20 12:41:58;;;;;;;2.20;1.70;;;21.10;57.40;;;;;;6275382;22;20473;-68
2022/04/20 12:44:41;;;;;;;2.60;1.63;;;21.60;58.20;;;;;;6274880;22;20424;-68
2022/04/20 12:47:36;;;;;;;2.57;1.70;;;21.60;56.40;;;;;;6275018;22;20424;-68
2022/04/20 12:50:21;;;;;;;1.70;1.50;;;21.50;55.20;;;;;;6275257;22;20463;-68
2022/04/20 12:52:59;;;;;;;1.77;1.40;;;21.80;57.00;;;;;;6272456;22;20413;-68
2022/04/20 12:55:39;;;;;;;2.40;1.57;;;21.80;54.70;;;;;;6275328;22;20428;-68
2022/04/20 13:03:42;;;;;;;3.30;1.70;;;21.90;53.40;;;;;;6273386;22;20388;-68
2022/04/20 13:06:11;;;;;;;1.80;1.40;;;22.10;55.90;;;;;;6273909;22;20421;-67
2022/04/20 13:08:41;;;;;;;2.27;1.70;;;22.30;54.30;;;;;;6274108;22;20393;-68
2022/04/20 13:11:11;;;;;;;2.00;1.70;;;22.50;54.40;;;;;;6274057;22;20404;-70
2022/04/20 13:13:39;;;;;;;1.80;1.70;;;22.50;57.00;;;;;;6273344;22;20397;-69
2022/04/20 13:16:09;;;;;;;1.97;1.40;;;22.30;58.70;;;;;;6273522;22;20431;-69
2022/04/20 13:18:37;;;;;;;1.70;1.60;;;22.50;56.20;;;;;;6247106;22;20400;-68
2022/04/20 13:21:04;;;;;;;2.40;1.70;;;22.80;54.10;;;;;;6273226;22;20443;-68
2022/04/20 13:23:32;;;;;;;2.90;1.53;;;22.40;52.00;;;;;;6273773;22;20397;-69
2022/04/20 13:28:45;;;;;;;2.30;1.77;;;22.50;53.80;;;;;;6275656;22;20520;-70
2022/04/20 13:31:12;;;;;;;2.30;1.70;;;22.20;55.00;;;;;;6275709;22;20400;-69
2022/04/20 13:33:42;;;;;;;2.60;1.80;;;22.50;53.60;;;;;;6275712;22;20401;-69
2022/04/20 13:36:09;;;;;;;2.00;1.57;;;22.70;54.40;;;;;;6249590;22;20406;-69